< Cyclone 199301 1993 Season Cyclone 199303 >
Cyclone 199302 (NINA)
General InformationDetailed Track InformationTrack Information on Google MapsList of All Images || ResourceGoogle EarthGE AnimationAtom FeedGeoJSON
Detalied Best Track Wind (Time Zone = UTC)
Year Month Day Hour Lat. Long. Wind (kt) Gust (kt) Direc. of Major Storm Axis Radius of Major Storm Axis (nm) Radius of Minor Storm Axis (nm) Direc. of Major Gale Axis Radius of Major Gale Axis (nm) Radius of Minor Gale Axis (nm) Image
1992 12 23 00 -12.9 140.0 31 -1 symmetric - - symmetric - - Image
1992 12 23 06 -12.4 139.6 31 -1 symmetric - - symmetric - - Image
1992 12 23 12 -11.9 139.7 35 -1 symmetric - - symmetric - - Image
1992 12 23 18 -12.0 140.1 35 -1 symmetric - - symmetric - - Image
1992 12 24 00 -12.3 140.3 41 -1 symmetric - - symmetric - - Image
1992 12 24 06 -12.6 140.5 51 -1 symmetric - - symmetric - - Image
1992 12 24 12 -12.8 140.8 60 -1 symmetric - - symmetric - - Image
1992 12 24 18 -13.3 141.1 60 -1 symmetric - - symmetric - - Image
1992 12 25 00 -13.8 141.3 60 -1 symmetric - - symmetric - - Image
1992 12 25 06 -14.0 141.5 60 -1 symmetric - - symmetric - - Image
1992 12 25 12 -14.1 141.7 54 -1 symmetric - - symmetric - - Image
1992 12 25 18 -14.2 142.0 51 -1 symmetric - - symmetric - - Image
1992 12 26 00 -14.3 142.3 45 -1 symmetric - - symmetric - - Image
1992 12 26 06 -14.3 142.7 45 -1 symmetric - - symmetric - - Image
1992 12 26 12 -14.2 143.0 45 -1 symmetric - - symmetric - - Image
1992 12 26 18 -14.1 143.1 45 -1 symmetric - - symmetric - - Image
1992 12 27 00 -14.0 143.2 45 -1 symmetric - - symmetric - - Image
1992 12 27 06 -13.7 143.4 45 -1 symmetric - - symmetric - - Image
1992 12 27 12 -13.4 144.1 31 -1 symmetric - - symmetric - - Image
1992 12 27 18 -13.2 144.7 31 -1 symmetric - - symmetric - - Image
1992 12 28 00 -13.1 145.5 41 -1 symmetric - - symmetric - - Image
1992 12 28 06 -13.3 146.3 41 -1 symmetric - - symmetric - - Image
1992 12 28 12 -13.5 146.8 41 -1 symmetric - - symmetric - - Image
1992 12 28 18 -13.6 147.3 41 -1 symmetric - - symmetric - - Image
1992 12 29 00 -14.1 148.7 45 -1 symmetric - - symmetric - - Image
1992 12 29 06 -14.6 149.9 51 -1 symmetric - - symmetric - - Image
1992 12 29 12 -15.0 150.9 60 -1 symmetric - - symmetric - - Image
1992 12 29 18 -15.1 151.3 60 -1 symmetric - - symmetric - - Image
1992 12 30 00 -14.8 152.0 64 -1 symmetric - - symmetric - - Image
1992 12 30 06 -14.5 152.5 70 -1 symmetric - - symmetric - - Image
1992 12 30 12 -14.2 153.2 70 -1 symmetric - - symmetric - - Image
1992 12 30 18 -13.8 153.8 64 -1 symmetric - - symmetric - - Image
1992 12 31 00 -13.4 154.6 64 -1 symmetric - - symmetric - - Image
1992 12 31 06 -13.1 155.2 64 -1 symmetric - - symmetric - - Image
1992 12 31 12 -12.8 155.8 70 -1 symmetric - - symmetric - - Image
1992 12 31 18 -12.5 156.7 70 -1 symmetric - - symmetric - - Image
1993 1 1 00 -11.9 158.0 76 -1 symmetric - - symmetric - - Image
1993 1 1 06 -11.7 159.2 76 -1 symmetric - - symmetric - - Image
1993 1 1 12 -11.6 160.4 76 -1 symmetric - - symmetric - - Image
1993 1 1 18 -11.5 161.7 76 -1 symmetric - - symmetric - - Image
1993 1 2 00 -11.4 163.8 76 -1 symmetric - - symmetric - - Image
1993 1 2 06 -11.4 165.8 70 -1 symmetric - - symmetric - - Image
1993 1 2 12 -11.5 168.5 60 -1 symmetric - - symmetric - - Image
1993 1 2 18 -11.6 170.9 60 -1 symmetric - - symmetric - - Image
< Cyclone 199301 1993 Season Cyclone 199303 >

Help